Welcome to Northern Hawkes Bay. New Zealand.
PWS Header
      nz Flag



Hit Counter


W3C Valid W3C Valid logo


    Wairoa

Select any of the Stations below to visit their websites.










Historic Data from Weather Underground
Select the location of interest below. Wairoa is the default. Please have patience, this Data is slow to load in.
Northern Hawkes Bay Historical Data
Daily Summary for January 9, 2017 Units:  English    Metric   Both
« Previous Day
Next Day »
Daily Weekly Monthly Yearly Custom
  High: Low: Average:
Temperature: 78.8 °F 56.3 °F 68 °F
Dew Point: 61.9 °F 46.4 °F 53.8 °F
Humidity: 83% 38% 61%
Wind Speed: 13mph 0mph 3.7mph
Wind Gust: 19.7mph - -
Wind- - SW
Pressure: 29.8 in 29.7 in -
Precipitation: 0 in    
Historical Graphs
 
 
Tabular Data for January 9, 2017
Time Temperature Dew Point Pressure Wind Wind Speed Wind Gust Humidity Rainfall Rate (Hourly) solar
00:02 60.4 °F 48.9 °F 29.7 in WNW 2.2 mph 4.5 mph 66% 0 in 0 W/m2
00:07 60.1 °F 48.7 °F 29.7 in NW 3.8 mph 6.9 mph 66% 0 in 0 W/m2
00:12 60.8 °F 48.6 °F 29.7 in NW 3.8 mph 8.3 mph 64% 0 in 0 W/m2
00:17 61.2 °F 48.6 °F 29.7 in NW 3.1 mph 8.3 mph 63% 0 in 0 W/m2
00:22 61.2 °F 48.6 °F 29.7 in NNW 3.1 mph 7.6 mph 63% 0 in 0 W/m2
00:27 61.2 °F 48.6 °F 29.7 in North 3.1 mph 6 mph 63% 0 in 0 W/m2
00:32 61.2 °F 48.6 °F 29.7 in NNW 3.1 mph 6 mph 63% 0 in 0 W/m2
00:37 61.2 °F 48.6 °F 29.7 in NNW 6 mph 8.3 mph 63% 0 in 0 W/m2
00:42 61.2 °F 48.6 °F 29.7 in NNW 3.8 mph 8.3 mph 63% 0 in 0 W/m2
00:47 61 °F 48.4 °F 29.7 in NNW 3.1 mph 8.3 mph 63% 0 in 0 W/m2
00:52 60.8 °F 48 °F 29.7 in NNW 3.1 mph 6.9 mph 63% 0 in 0 W/m2
00:57 60.6 °F 48.4 °F 29.7 in North 3.1 mph 4.5 mph 64% 0 in 0 W/m2
01:02 60.4 °F 48.2 °F 29.7 in North 3.8 mph 6 mph 64% 0 in 0 W/m2
01:07 60.3 °F 48 °F 29.7 in North 3.8 mph 6 mph 64% 0 in 0 W/m2
01:12 60.1 °F 48.4 °F 29.7 in North 3.1 mph 5.4 mph 65% 0 in 0 W/m2
01:17 59.7 °F 47.8 °F 29.7 in NNW 2.2 mph 5.4 mph 65% 0 in 0 W/m2
01:22 59.5 °F 48.2 °F 29.7 in NNW 3.8 mph 6 mph 66% 0 in 0 W/m2
01:27 59.5 °F 48.2 °F 29.7 in North 3.1 mph 6.9 mph 66% 0 in 0 W/m2
01:32 59.9 °F 48 °F 29.7 in North 3.8 mph 8.3 mph 65% 0 in 0 W/m2
01:37 60.3 °F 48 °F 29.7 in North 6 mph 9.8 mph 64% 0 in 0 W/m2
01:42 60.6 °F 48 °F 29.7 in North 3.8 mph 9.8 mph 63% 0 in 0 W/m2
01:47 60.4 °F 47.8 °F 29.7 in North 3.8 mph 9.8 mph 63% 0 in 0 W/m2
01:52 60.3 °F 48 °F 29.7 in North 3.1 mph 6 mph 64% 0 in 0 W/m2
01:57 59.9 °F 47.7 °F 29.7 in North 3.1 mph 6 mph 64% 0 in 0 W/m2
02:02 59.5 °F 47.8 °F 29.7 in NNW 3.1 mph 6 mph 65% 0 in 0 W/m2
02:07 59 °F 47.7 °F 29.7 in NNW 2.2 mph 6 mph 66% 0 in 0 W/m2
02:12 58.5 °F 47.8 °F 29.7 in NNW 1.6 mph 5.4 mph 68% 0 in 0 W/m2
02:22 57.7 °F 48 °F 29.7 in Calm   3.1 mph 70% 0 in 0 W/m2
02:28 57.2 °F 47.5 °F 29.7 in North 2.2 mph 3.1 mph 70% 0 in 0 W/m2
02:41 57 °F 48.6 °F 29.7 in Calm   2.2 mph 73% 0 in 0 W/m2
03:31 59.5 °F 46.9 °F 29.7 in NW 2.2 mph 6 mph 63% 0 in 0 W/m2
03:37 59.2 °F 46.9 °F 29.7 in NW 3.8 mph 5.4 mph 64% 0 in 0 W/m2
03:42 58.6 °F 47.3 °F 29.7 in NW 3.8 mph 5.4 mph 66% 0 in 0 W/m2
03:47 58.5 °F 47.1 °F 29.7 in NW 2.2 mph 5.4 mph 66% 0 in 0 W/m2
03:52 58.6 °F 47.3 °F 29.7 in NNW 3.8 mph 6.9 mph 66% 0 in 0 W/m2
03:57 59.5 °F 46.9 °F 29.7 in NNW 3.1 mph 6.9 mph 63% 0 in 0 W/m2
04:02 59.7 °F 47.1 °F 29.7 in NNW 2.2 mph 6.9 mph 63% 0 in 0 W/m2
04:07 59.7 °F 47.1 °F 29.7 in NNW 0.7 mph 6.9 mph 63% 0 in 0 W/m2
04:12 59 °F 46.4 °F 29.7 in NNW 3.1 mph 5.4 mph 63% 0 in 0 W/m2
04:17 59 °F 46.4 °F 29.7 in North 2.2 mph 5.4 mph 63% 0 in 0 W/m2
04:22 59 °F 46.4 °F 29.7 in NNE 2.2 mph 5.4 mph 63% 0 in 0 W/m2
04:27 59 °F 46.4 °F 29.7 in NE 3.8 mph 5.4 mph 63% 0 in 0 W/m2
04:32 59.5 °F 46.6 °F 29.7 in NE 1.6 mph 5.4 mph 62% 0 in 0 W/m2
04:37 59.5 °F 46.6 °F 29.7 in North 2.2 mph 5.4 mph 62% 0 in 0 W/m2
04:42 58.6 °F 46.6 °F 29.7 in NW 3.1 mph 5.4 mph 64% 0 in 0 W/m2
04:47 58.3 °F 46.6 °F 29.7 in WNW 3.8 mph 5.4 mph 65% 0 in 0 W/m2
04:52 58.1 °F 46.4 °F 29.7 in WNW 3.8 mph 9.8 mph 65% 0 in 0 W/m2
04:57 57.9 °F 46.6 °F 29.7 in WNW 3.8 mph 9.8 mph 66% 0 in 0 W/m2
05:02 59 °F 46.4 °F 29.7 in West 3.8 mph 9.8 mph 63% 0 in 0 W/m2
05:07 59.7 °F 46.8 °F 29.7 in West 3.8 mph 8.3 mph 62% 0 in 0 W/m2
05:12 59.7 °F 46.8 °F 29.7 in WNW 2.2 mph 6.9 mph 62% 0 in 0 W/m2
05:17 59.7 °F 46.8 °F 29.7 in NW 1.6 mph 5.4 mph 62% 0 in 0 W/m2
05:22 59.2 °F 46.6 °F 29.7 in NW 3.1 mph 4.5 mph 63% 0 in 0 W/m2
05:27 58.8 °F 47.1 °F 29.7 in NW 0.7 mph 4.5 mph 65% 0 in 0 W/m2
05:32 58.3 °F 46.9 °F 29.7 in NNW 6 mph 7.6 mph 66% 0 in 0 W/m2
05:37 58.1 °F 47.1 °F 29.7 in NW 4.5 mph 7.6 mph 67% 0 in 0 W/m2
05:42 57.7 °F 46.9 °F 29.7 in NW 3.1 mph 7.6 mph 67% 0 in 0 W/m2
05:47 57.2 °F 46.8 °F 29.7 in NW 3.8 mph 6 mph 68% 0 in 0 W/m2
05:52 57 °F 47.3 °F 29.7 in NW 3.1 mph 6 mph 70% 0 in 0 W/m2
05:57 56.8 °F 47.1 °F 29.7 in NW 3.1 mph 6 mph 70% 0 in 1 W/m2
06:02 56.8 °F 47.5 °F 29.7 in NW 3.8 mph 6 mph 71% 0 in 4 W/m2
06:07 56.7 °F 47.5 °F 29.7 in NNW 3.1 mph 6 mph 71% 0 in 7 W/m2
06:12 56.7 °F 47.5 °F 29.7 in NNW 2.2 mph 6 mph 71% 0 in 13 W/m2
06:17 56.3 °F 47.5 °F 29.7 in NNW 3.1 mph 5.4 mph 72% 0 in 18 W/m2
06:19 56.3 °F 47.8 °F 29.7 in NNW 3.8 mph 6 mph 73% 0 in 20 W/m2
06:24 56.5 °F 47.8 °F 29.7 in NNW 4.5 mph 9.8 mph 73% 0 in 26 W/m2
06:29 56.7 °F 47.7 °F 29.7 in NNW 2.2 mph 9.8 mph 72% 0 in 33 W/m2
06:34 56.8 °F 47.8 °F 29.7 in NNW 1.6 mph 6 mph 72% 0 in 38 W/m2
06:39 56.8 °F 48.4 °F 29.7 in Calm   4.5 mph 73% 0 in 41 W/m2
06:44 57.2 °F 48.4 °F 29.7 in NNE 1.6 mph 4.5 mph 72% 0 in 46 W/m2
06:49 57.4 °F 48 °F 29.7 in NE 0.7 mph 5.4 mph 71% 0 in 56 W/m2
06:54 57.7 °F 48 °F 29.7 in NNE 1.6 mph 5.4 mph 70% 0 in 85 W/m2
06:59 59 °F 48.9 °F 29.7 in NNE 3.1 mph 4.5 mph 69% 0 in 132 W/m2
07:04 60.3 °F 49.3 °F 29.7 in North 0.7 mph 5.4 mph 67% 0 in 144 W/m2
07:09 61.9 °F 50 °F 29.7 in NNW 3.8 mph 5.4 mph 65% 0 in 109 W/m2
07:14 62.2 °F 49.1 °F 29.7 in North 3.1 mph 5.4 mph 62% 0 in 84 W/m2
07:19 61.9 °F 48.7 °F 29.7 in North 3.1 mph 6 mph 62% 0 in 94 W/m2
07:24 61.9 °F 49.3 °F 29.7 in NNW 2.2 mph 6 mph 63% 0 in 100 W/m2
07:29 62.2 °F 49.5 °F 29.7 in NW 4.5 mph 6 mph 63% 0 in 121 W/m2
07:34 62.6 °F 48.9 °F 29.7 in NW 2.2 mph 6.9 mph 61% 0 in 127 W/m2
07:39 63 °F 49.8 °F 29.7 in NW 6 mph 6.9 mph 62% 0 in 175 W/m2
07:45 64.9 °F 50.4 °F 29.7 in WNW 4.5 mph 7.6 mph 59% 0 in 157 W/m2
07:50 66 °F 50.4 °F 29.7 in WNW 3.8 mph 7.6 mph 57% 0 in 188 W/m2
07:55 66.7 °F 50.5 °F 29.7 in WNW 3.8 mph 7.6 mph 56% 0 in 247 W/m2
08:00 67.8 °F 50.5 °F 29.7 in West 4.5 mph 9.8 mph 54% 0 in 206 W/m2
08:05 68.2 °F 50.4 °F 29.7 in WNW 4.5 mph 9.8 mph 53% 0 in 269 W/m2
08:10 68.7 °F 49.5 °F 29.7 in WNW 6.9 mph 10.7 mph 50% 0 in 295 W/m2
08:15 68.9 °F 50.2 °F 29.7 in NW 6 mph 10.7 mph 51% 0 in 371 W/m2
08:20 69.6 °F 50.7 °F 29.7 in NW 6.9 mph 12.1 mph 51% 0 in 395 W/m2
08:26 70.2 °F 50.2 °F 29.7 in NW 4.5 mph 12.1 mph 49% 0 in 386 W/m2
08:31 71.1 °F 49.8 °F 29.7 in WNW 3.8 mph 11.4 mph 47% 0 in 389 W/m2
08:36 70.7 °F 49.5 °F 29.7 in NW 5.4 mph 11.4 mph 47% 0 in 351 W/m2
08:41 71.2 °F 49.5 °F 29.7 in NW 6 mph 9.8 mph 46% 0 in 417 W/m2
08:46 71.6 °F 48.6 °F 29.8 in NW 2.2 mph 9.8 mph 44% 0 in 417 W/m2
08:51 71.8 °F 49.3 °F 29.8 in NNW 3.8 mph 9.2 mph 45% 0 in 453 W/m2
08:56 72.3 °F 49.8 °F 29.8 in North 2.2 mph 8.3 mph 45% 0 in 465 W/m2
09:01 72.9 °F 50.9 °F 29.8 in NNW 2.2 mph 6.9 mph 46% 0 in 483 W/m2
09:06 73.6 °F 51.6 °F 29.8 in NNW 3.1 mph 6.9 mph 46% 0 in 504 W/m2
09:11 74.8 °F 52.2 °F 29.8 in NE 3.8 mph 6 mph 45% 0 in 544 W/m2
09:16 74.1 °F 51.4 °F 29.8 in ENE 3.1 mph 9.2 mph 45% 0 in 469 W/m2
09:21 74.8 °F 52.2 °F 29.8 in ENE 2.2 mph 9.2 mph 45% 0 in 506 W/m2
09:26 74.1 °F 51.4 °F 29.7 in WNW 3.8 mph 9.2 mph 45% 0 in 460 W/m2
09:31 73.4 °F 51.4 °F 29.8 in West 2.2 mph 9.2 mph 46% 0 in 545 W/m2
09:36 74.7 °F 52.5 °F 29.8 in WSW 1.6 mph 8.3 mph 46% 0 in 616 W/m2
09:42 75.9 °F 52 °F 29.8 in West 0.7 mph 5.4 mph 43% 0 in 625 W/m2
09:47 77 °F 51.4 °F 29.8 in SW 3.1 mph 6 mph 41% 0 in 624 W/m2
09:52 76.6 °F 51.3 °F 29.8 in South 6 mph 7.6 mph 41% 0 in 637 W/m2
09:57 75.7 °F 51.6 °F 29.8 in South 5.4 mph 7.6 mph 43% 0 in 688 W/m2
10:02 74.3 °F 51.6 °F 29.8 in South 4.5 mph 8.3 mph 45% 0 in 662 W/m2
10:07 74.7 °F 52.5 °F 29.8 in SSE 3.1 mph 8.3 mph 46% 0 in 607 W/m2
10:12 75 °F 53.4 °F 29.8 in SE 3.8 mph 7.6 mph 47% 0 in 683 W/m2
10:17 75.6 °F 52.9 °F 29.8 in SE 3.8 mph 6.9 mph 45% 0 in 728 W/m2
10:22 74.8 °F 52.7 °F 29.8 in SSE 3.8 mph 6 mph 46% 0 in 707 W/m2
10:27 75.2 °F 52.3 °F 29.8 in South 1.6 mph 6 mph 45% 0 in 727 W/m2
10:32 75.7 °F 52.3 °F 29.8 in South 4.5 mph 6 mph 44% 0 in 751 W/m2
10:37 75.2 °F 51.8 °F 29.8 in SSW 6.9 mph 10.7 mph 44% 0 in 650 W/m2
10:42 73.9 °F 51.3 °F 29.8 in SSW 3.8 mph 10.7 mph 45% 0 in 776 W/m2
10:47 73.9 °F 52 °F 29.8 in SSW 5.4 mph 10.7 mph 46% 0 in 889 W/m2
10:52 73.9 °F 52 °F 29.8 in SSW 3.1 mph 9.8 mph 46% 0 in 632 W/m2
10:57 74.1 °F 51.4 °F 29.8 in South 6 mph 10.7 mph 45% 0 in 611 W/m2
11:02 74.3 °F 51.6 °F 29.8 in SSE 2.2 mph 10.7 mph 45% 0 in 652 W/m2
11:07 75.2 °F 51.8 °F 29.8 in SE 4.5 mph 10.7 mph 44% 0 in 711 W/m2
11:12 75.4 °F 52 °F 29.8 in SSE 4.5 mph 7.6 mph 44% 0 in 773 W/m2
11:17 74.7 °F 52 °F 29.8 in SSE 3.8 mph 7.6 mph 45% 0 in 287 W/m2
11:22 72.9 °F 49.6 °F 29.8 in SSE 3.8 mph 9.2 mph 44% 0 in 337 W/m2
11:27 72.9 °F 50.4 °F 29.8 in SSE 4.5 mph 9.2 mph 45% 0 in 841 W/m2
11:32 73.8 °F 52.3 °F 29.8 in South 5.4 mph 9.8 mph 47% 0 in 711 W/m2
11:37 73.9 °F 53.1 °F 29.8 in SW 6 mph 9.8 mph 48% 0 in 863 W/m2
11:42 73.9 °F 53.1 °F 29.8 in SW 9.8 mph 14.5 mph 48% 0 in 830 W/m2
11:47 73.9 °F 53.1 °F 29.8 in SSW 7.6 mph 14.5 mph 48% 0 in 889 W/m2
11:52 73.4 °F 55.2 °F 29.8 in SSW 9.2 mph 14.5 mph 53% 0 in 813 W/m2
11:57 73.6 °F 55.4 °F 29.8 in SW 10.7 mph 14.5 mph 53% 0 in 757 W/m2
12:02 73.9 °F 55.8 °F 29.8 in SW 6.9 mph 15.2 mph 53% 0 in 756 W/m2
12:07 73.2 °F 54 °F 29.8 in SW 11.4 mph 16.8 mph 51% 0 in 547 W/m2
12:12 73 °F 54.3 °F 29.8 in SW 9.8 mph 19 mph 52% 0 in 763 W/m2
12:17 73 °F 54.3 °F 29.8 in SW 11.4 mph 19 mph 52% 0 in 846 W/m2
12:22 73.4 °F 55.2 °F 29.8 in SW 11.4 mph 18.3 mph 53% 0 in 603 W/m2
12:27 73.6 °F 55.4 °F 29.8 in SW 9.2 mph 17.4 mph 53% 0 in 446 W/m2
12:32 73 °F 54.9 °F 29.8 in SSW 9.2 mph 16.8 mph 53% 0 in 479 W/m2
12:37 72.9 °F 54.9 °F 29.8 in SSW 8.3 mph 16.8 mph 53% 0 in 614 W/m2
12:42 73.6 °F 55.4 °F 29.8 in South 7.6 mph 13.6 mph 53% 0 in 630 W/m2
12:47 73.6 °F 55.9 °F 29.8 in SSW 6 mph 15.2 mph 54% 0 in 492 W/m2
12:51 73.4 °F 56.8 °F 29.8 in SSW 8.3 mph 15.2 mph 56% 0 in 853 W/m2
12:57 73.8 °F 56.7 °F 29.8 in SSW 6.9 mph 13.6 mph 55% 0 in 853 W/m2
13:02 73.9 °F 57.4 °F 29.8 in South 11.4 mph 16.8 mph 56% 0 in 706 W/m2
13:07 74.3 °F 57.6 °F 29.8 in South 9.8 mph 19.7 mph 56% 0 in 872 W/m2
13:12 73.9 °F 57.4 °F 29.8 in SSW 8.3 mph 19.7 mph 56% 0 in 696 W/m2
13:17 73.9 °F 57.7 °F 29.8 in South 8.3 mph 15.2 mph 57% 0 in 346 W/m2
13:22 74.1 °F 53.2 °F 29.8 in SSW 12.1 mph 19.7 mph 48% 0 in 424 W/m2
13:27 73.9 °F 52 °F 29.8 in SW 13 mph 19.7 mph 46% 0 in 455 W/m2
13:32 74.1 °F 52 °F 29.8 in SW 10.7 mph 19 mph 46% 0 in 393 W/m2
13:37 74.7 °F 52.5 °F 29.8 in WSW 11.4 mph 19 mph 46% 0 in 711 W/m2
13:42 75.4 °F 53.2 °F 29.8 in SW 7.6 mph 19 mph 46% 0 in 869 W/m2
13:47 76.3 °F 54 °F 29.8 in SSW 9.8 mph 18.3 mph 46% 0 in 799 W/m2
13:52 75.4 °F 54.9 °F 29.8 in SSW 8.3 mph 16.8 mph 49% 0 in 896 W/m2
13:57 76.1 °F 56.1 °F 29.8 in South 6.9 mph 15.9 mph 50% 0 in 839 W/m2
14:02 75 °F 56.1 °F 29.8 in South 11.4 mph 13.6 mph 52% 0 in 688 W/m2
14:07 75 °F 54.7 °F 29.8 in SSW 5.4 mph 13.6 mph 49% 0 in 655 W/m2
14:12 76.5 °F 54.9 °F 29.8 in South 5.4 mph 13.6 mph 47% 0 in 964 W/m2
14:17 76.3 °F 55.8 °F 29.8 in South 2.2 mph 13.6 mph 49% 0 in 817 W/m2
14:22 77 °F 54.1 °F 29.8 in SE 6 mph 12.1 mph 45% 0 in 736 W/m2
14:26 76.1 °F 54.3 °F 29.8 in SE 3.8 mph 12.1 mph 47% 0 in 309 W/m2
14:32 75.6 °F 54 °F 29.8 in SSE 1.6 mph 9.8 mph 47% 0 in 844 W/m2
14:37 77 °F 53.4 °F 29.8 in South 6 mph 8.3 mph 44% 0 in 874 W/m2
14:42 76.5 °F 53.6 °F 29.8 in South 5.4 mph 9.2 mph 45% 0 in 893 W/m2
14:47 77.4 °F 54.3 °F 29.8 in SSE 3.8 mph 9.2 mph 45% 0 in 947 W/m2
14:53 77 °F 52.9 °F 29.8 in ESE 3.8 mph 9.2 mph 43% 0 in 923 W/m2
14:58 77.9 °F 53.6 °F 29.8 in East 1.6 mph 9.2 mph 43% 0 in 629 W/m2
15:03 78.4 °F 53.4 °F 29.8 in SE 4.5 mph 10.7 mph 42% 0 in 859 W/m2
15:08 78.8 °F 51.1 °F 29.8 in SE 4.5 mph 11.4 mph 38% 0 in 854 W/m2
15:13 78.4 °F 54.1 °F 29.8 in SSE 6.9 mph 11.4 mph 43% 0 in 823 W/m2
15:18 76.8 °F 56.8 °F 29.8 in SE 4.5 mph 14.5 mph 50% 0 in 813 W/m2
15:23 76.3 °F 55.8 °F 29.8 in SE 4.5 mph 14.5 mph 49% 0 in 229 W/m2
15:28 75.6 °F 54.5 °F 29.8 in SE 5.4 mph 10.7 mph 48% 0 in 554 W/m2
15:33 74.1 °F 59.4 °F 29.8 in SSE 5.4 mph 14.5 mph 60% 0 in 791 W/m2
15:38 74.3 °F 59.5 °F 29.8 in SSE 4.5 mph 14.5 mph 60% 0 in 749 W/m2
15:43 74.3 °F 59.2 °F 29.8 in SSE 5.4 mph 14.5 mph 59% 0 in 738 W/m2
15:48 73.4 °F 59.5 °F 29.8 in SE 3.8 mph 14.5 mph 62% 0 in 755 W/m2
15:53 73.6 °F 59.7 °F 29.8 in SE 8.3 mph 11.4 mph 62% 0 in 714 W/m2
15:57 72 °F 59.2 °F 29.8 in SSE 6 mph 14.5 mph 64% 0 in 706 W/m2
16:03 72 °F 59.5 °F 29.8 in SSE 3.8 mph 14.5 mph 65% 0 in 701 W/m2
16:07 72 °F 59.5 °F 29.8 in SE 3.8 mph 13 mph 65% 0 in 688 W/m2
16:12 73.4 °F 60.4 °F 29.8 in SE 3.1 mph 13 mph 64% 0 in 708 W/m2
16:18 73.8 °F 61.3 °F 29.8 in SE 6 mph 13.6 mph 65% 0 in 692 W/m2
16:23 73.4 °F 61 °F 29.8 in SSE 4.5 mph 13.6 mph 65% 0 in 659 W/m2
16:28 73.2 °F 60.3 °F 29.8 in SSE 6 mph 13 mph 64% 0 in 644 W/m2
16:33 72.9 °F 60.4 °F 29.8 in SE 3.1 mph 13 mph 65% 0 in 584 W/m2
16:37 73 °F 59.7 °F 29.8 in SE 5.4 mph 13 mph 63% 0 in 518 W/m2
16:43 72 °F 58.6 °F 29.8 in SSE 3.8 mph 11.4 mph 63% 0 in 263 W/m2
16:47 71.1 °F 59.2 °F 29.8 in South 2.2 mph 10.7 mph 66% 0 in 637 W/m2
16:52 73.2 °F 60.3 °F 29.8 in South 4.5 mph 10.7 mph 64% 0 in 641 W/m2
16:57 74.5 °F 61.2 °F 29.8 in SE 3.8 mph 8.3 mph 63% 0 in 611 W/m2
17:02 74.5 °F 59.2 °F 29.8 in SE 6 mph 9.2 mph 59% 0 in 552 W/m2
17:07 75.2 °F 59.4 °F 29.8 in SE 3.1 mph 9.2 mph 58% 0 in 523 W/m2
17:12 75.7 °F 59 °F 29.8 in SSE 6 mph 9.2 mph 56% 0 in 505 W/m2
17:18 74.7 °F 59.9 °F 29.8 in SSE 4.5 mph 9.2 mph 60% 0 in 492 W/m2
17:22 75.2 °F 60.4 °F 29.8 in SSE 2.2 mph 9.2 mph 60% 0 in 473 W/m2
17:28 75 °F 60.3 °F 29.8 in SE 4.5 mph 9.2 mph 60% 0 in 456 W/m2
17:33 74.5 °F 59.7 °F 29.8 in SSE 3.8 mph 9.2 mph 60% 0 in 440 W/m2
17:37 74.5 °F 59.2 °F 29.8 in South 4.5 mph 8.3 mph 59% 0 in 426 W/m2
17:43 74.3 °F 60.1 °F 29.8 in South 3.1 mph 9.2 mph 61% 0 in 409 W/m2
17:47 73.9 °F 60.1 °F 29.8 in SSE 6 mph 9.2 mph 62% 0 in 393 W/m2
17:52 73.6 °F 59.4 °F 29.8 in SE 3.8 mph 11.4 mph 61% 0 in 379 W/m2
17:57 73.6 °F 59.4 °F 29.8 in SE 3.1 mph 11.4 mph 61% 0 in 366 W/m2
18:02 74.3 °F 59.2 °F 29.8 in SE 4.5 mph 7.6 mph 59% 0 in 351 W/m2
18:18 74.3 °F 59.5 °F 29.8 in SSE 3.1 mph 7.6 mph 60% 0 in 325 W/m2
18:23 74.3 °F 58.6 °F 29.8 in SSE 3.1 mph 8.3 mph 58% 0 in 214 W/m2
18:29 72.1 °F 57.9 °F 29.8 in SSE 3.1 mph 8.3 mph 61% 0 in 102 W/m2
18:33 70.9 °F 58.6 °F 29.8 in South 1.6 mph 6 mph 65% 0 in 137 W/m2
18:38 71.6 °F 59.7 °F 29.8 in South 3.1 mph 6 mph 66% 0 in 141 W/m2
18:44 72 °F 61 °F 29.8 in SSW 3.8 mph 6.9 mph 68% 0 in 139 W/m2
18:48 70.5 °F 60.6 °F 29.8 in SSW 3.8 mph 7.6 mph 71% 0 in 76 W/m2
18:54 70 °F 60.6 °F 29.8 in South 1.6 mph 7.6 mph 72% 0 in 188 W/m2
18:58 71.4 °F 61.5 °F 29.8 in SSW 1.6 mph 5.4 mph 71% 0 in 230 W/m2
19:03 73.4 °F 61.3 °F 29.8 in South 1.6 mph 4.5 mph 66% 0 in 200 W/m2
19:08 74.8 °F 61.9 °F 29.8 in Calm   4.5 mph 64% 0 in 187 W/m2
19:13 76.6 °F 60.3 °F 29.8 in Calm   3.8 mph 57% 0 in 175 W/m2
19:18 77.2 °F 59.4 °F 29.8 in Calm   2.2 mph 54% 0 in 166 W/m2
19:23 77 °F 59.5 °F 29.8 in WSW 2.2 mph 3.8 mph 55% 0 in 154 W/m2
19:28 75.9 °F 59.5 °F 29.8 in Calm   3.8 mph 57% 0 in 52 W/m2
19:33 73.8 °F 59 °F 29.8 in WSW 2.2 mph 3.8 mph 60% 0 in 133 W/m2
19:38 73.4 °F 60.1 °F 29.8 in WSW 0.7 mph 3.8 mph 63% 0 in 112 W/m2
19:43 72.3 °F 59 °F 29.8 in Calm   3.8 mph 63% 0 in 39 W/m2
19:48 71.1 °F 58.6 °F 29.8 in Calm   3.1 mph 65% 0 in 67 W/m2
19:53 71.4 °F 59.2 °F 29.8 in Calm   3.1 mph 65% 0 in 72 W/m2
19:58 71.4 °F 59.5 °F 29.8 in Calm   2.2 mph 66% 0 in 34 W/m2
20:03 70.2 °F 58.6 °F 29.8 in Calm   2.2 mph 67% 0 in 21 W/m2
20:09 69.4 °F 58.8 °F 29.8 in Calm   2.2 mph 69% 0 in 18 W/m2
20:13 68.9 °F 58.6 °F 29.8 in NW 0.7 mph 1.6 mph 70% 0 in 15 W/m2
20:18 68.4 °F 59 °F 29.8 in NW 0.7 mph 1.6 mph 72% 0 in 14 W/m2
20:23 68 °F 59 °F 29.8 in NW 0.7 mph 2.2 mph 73% 0 in 10 W/m2
20:29 67.6 °F 59.5 °F 29.8 in Calm   2.2 mph 75% 0 in 7 W/m2
20:33 67.3 °F 59.2 °F 29.8 in NW 0.7 mph 2.2 mph 75% 0 in 4 W/m2
20:38 67.1 °F 58.8 °F 29.8 in Calm   2.2 mph 75% 0 in 1 W/m2
20:43 66.7 °F 58.6 °F 29.8 in Calm   2.2 mph 75% 0 in 0 W/m2
20:48 66.4 °F 58.3 °F 29.8 in Calm     75% 0 in 0 W/m2
20:53 66.2 °F 58.1 °F 29.8 in North 0.7 mph 1.6 mph 75% 0 in 0 W/m2
20:58 66.4 °F 58.6 °F 29.8 in NW 2.2 mph 3.1 mph 76% 0 in 0 W/m2
21:03 66 °F 58.6 °F 29.8 in NW 1.6 mph 3.1 mph 77% 0 in 0 W/m2
21:08 65.8 °F 58.8 °F 29.8 in NW 1.6 mph 3.8 mph 78% 0 in 0 W/m2
21:13 65.7 °F 59 °F 29.8 in NW 2.2 mph 5.4 mph 79% 0 in 0 W/m2
21:18 65.5 °F 58.8 °F 29.8 in NNW 0.7 mph 5.4 mph 79% 0 in 0 W/m2
21:23 65.1 °F 58.8 °F 29.8 in Calm   4.5 mph 80% 0 in 0 W/m2
21:28 65.1 °F 59.2 °F 29.8 in NNE 1.6 mph 3.1 mph 81% 0 in 0 W/m2
21:33 65.1 °F 59.2 °F 29.8 in North 1.6 mph 3.1 mph 81% 0 in 0 W/m2
21:38 65.3 °F 59.4 °F 29.8 in NNW 1.6 mph 3.8 mph 81% 0 in 0 W/m2
21:43 65.1 °F 59.2 °F 29.8 in NNW 0.7 mph 3.8 mph 81% 0 in 0 W/m2
21:48 64.8 °F 58.8 °F 29.8 in WNW 2.2 mph 4.5 mph 81% 0 in 0 W/m2
21:53 64.6 °F 59 °F 29.8 in WNW 1.6 mph 4.5 mph 82% 0 in 0 W/m2
21:58 64.4 °F 58.8 °F 29.8 in Calm   3.8 mph 82% 0 in 0 W/m2
22:03 64.2 °F 58.6 °F 29.8 in NW 0.7 mph 3.1 mph 82% 0 in 0 W/m2
22:08 63.9 °F 58.3 °F 29.8 in Calm   2.2 mph 82% 0 in 0 W/m2
22:13 63.7 °F 58.5 °F 29.8 in North 2.2 mph 3.1 mph 83% 0 in 0 W/m2
22:18 63.9 °F 58.6 °F 29.8 in North 3.1 mph 3.8 mph 83% 0 in 0 W/m2
22:23 64 °F 58.8 °F 29.8 in North 1.6 mph 3.8 mph 83% 0 in 0 W/m2
22:28 64 °F 58.8 °F 29.8 in NNW 2.2 mph 3.8 mph 83% 0 in 0 W/m2
22:33 64 °F 58.8 °F 29.8 in NW 3.8 mph 5.4 mph 83% 0 in 0 W/m2
22:38 64 °F 58.8 °F 29.8 in NW 3.1 mph 5.4 mph 83% 0 in 0 W/m2
22:43 64.2 °F 59 °F 29.8 in NW 3.1 mph 5.4 mph 83% 0 in 0 W/m2
22:48 64.6 °F 59 °F 29.8 in NNW 3.8 mph 5.4 mph 82% 0 in 0 W/m2
22:54 64.8 °F 58.8 °F 29.8 in NNW 3.1 mph 5.4 mph 81% 0 in 0 W/m2
23:00 64.8 °F 58.5 °F 29.8 in NW 2.2 mph 5.4 mph 80% 0 in 0 W/m2
23:05 64.9 °F 58.6 °F 29.8 in NW 2.2 mph 3.8 mph 80% 0 in 0 W/m2
23:10 64.8 °F 58.5 °F 29.8 in NW 0.7 mph 3.8 mph 80% 0 in 0 W/m2
23:12 64.6 °F 58.3 °F 29.8 in NW 2.2 mph 3.1 mph 80% 0 in 0 W/m2
23:17 64.6 °F 58.6 °F 29.8 in NNW 1.6 mph 3.8 mph 81% 0 in 0 W/m2
23:22 64.6 °F 58.3 °F 29.8 in NW 1.6 mph 3.8 mph 80% 0 in 0 W/m2
23:27 64.6 °F 58.3 °F 29.8 in Calm   3.1 mph 80% 0 in 0 W/m2
23:32 64.4 °F 58.5 °F 29.8 in Calm   1.6 mph 81% 0 in 0 W/m2
23:37 64.2 °F 58.3 °F 29.8 in Calm   0.7 mph 81% 0 in 0 W/m2
23:42 64 °F 58.1 °F 29.8 in Calm   0.7 mph 81% 0 in 0 W/m2
23:47 64 °F 58.1 °F 29.8 in East 1.6 mph 3.1 mph 81% 0 in 0 W/m2
23:52 64.4 °F 57.4 °F 29.8 in ENE 1.6 mph 3.1 mph 78% 0 in 0 W/m2
23:57 64.6 °F 56.5 °F 29.8 in NNE 3.1 mph 5.4 mph 75% 0 in 0 W/m2
Northern Hawkes Bay. New Zealand Historic Data
Compliments of Weather Underground - 2.25 mb